sensor_id;sensor_type;location;lat;lon;timestamp;temperature;humidity
23271;DHT22;11804;51.118;17.058;2023-04-25T00:01:30;11.10;99.90
23271;DHT22;11804;51.118;17.058;2023-04-25T00:03:59;11.20;99.90
23271;DHT22;11804;51.118;17.058;2023-04-25T00:06:27;11.20;99.90
23271;DHT22;11804;51.118;17.058;2023-04-25T00:08:56;11.10;99.90
23271;DHT22;11804;51.118;17.058;2023-04-25T00:11:24;11.10;99.90
23271;DHT22;11804;51.118;17.058;2023-04-25T00:13:52;11.00;99.90
23271;DHT22;11804;51.118;17.058;2023-04-25T00:16:20;11.00;99.90
23271;DHT22;11804;51.118;17.058;2023-04-25T00:18:50;11.00;99.90
23271;DHT22;11804;51.118;17.058;2023-04-25T00:21:20;11.10;99.90
23271;DHT22;11804;51.118;17.058;2023-04-25T00:23:49;11.10;99.90
23271;DHT22;11804;51.118;17.058;2023-04-25T00:26:17;11.10;99.90
23271;DHT22;11804;51.118;17.058;2023-04-25T00:28:45;11.10;99.90
23271;DHT22;11804;51.118;17.058;2023-04-25T00:31:13;11.00;99.90
23271;DHT22;11804;51.118;17.058;2023-04-25T00:33:40;11.00;99.90
23271;DHT22;11804;51.118;17.058;2023-04-25T00:36:08;10.90;99.90
23271;DHT22;11804;51.118;17.058;2023-04-25T00:38:36;10.90;99.90
23271;DHT22;11804;51.118;17.058;2023-04-25T00:41:06;11.00;99.90
23271;DHT22;11804;51.118;17.058;2023-04-25T00:43:36;11.00;99.90
23271;DHT22;11804;51.118;17.058;2023-04-25T00:46:04;11.00;99.90
23271;DHT22;11804;51.118;17.058;2023-04-25T00:48:32;11.00;99.90
23271;DHT22;11804;51.118;17.058;2023-04-25T00:51:00;10.90;99.90
23271;DHT22;11804;51.118;17.058;2023-04-25T00:53:28;11.00;99.90
23271;DHT22;11804;51.118;17.058;2023-04-25T00:56:00;11.00;99.90
23271;DHT22;11804;51.118;17.058;2023-04-25T00:58:27;10.90;99.90
23271;DHT22;11804;51.118;17.058;2023-04-25T01:00:56;11.00;99.90
23271;DHT22;11804;51.118;17.058;2023-04-25T01:03:24;10.90;99.90
23271;DHT22;11804;51.118;17.058;2023-04-25T01:05:54;10.80;99.90
23271;DHT22;11804;51.118;17.058;2023-04-25T01:08:24;10.70;99.90
23271;DHT22;11804;51.118;17.058;2023-04-25T01:10:52;10.70;99.90
23271;DHT22;11804;51.118;17.058;2023-04-25T01:13:21;10.70;99.90
23271;DHT22;11804;51.118;17.058;2023-04-25T01:15:49;10.70;99.90
23271;DHT22;11804;51.118;17.058;2023-04-25T01:18:16;10.60;99.90
23271;DHT22;11804;51.118;17.058;2023-04-25T01:20:46;10.70;99.90
23271;DHT22;11804;51.118;17.058;2023-04-25T01:23:14;10.60;99.90
23271;DHT22;11804;51.118;17.058;2023-04-25T01:25:42;10.60;99.90
23271;DHT22;11804;51.118;17.058;2023-04-25T01:28:10;10.50;99.90
23271;DHT22;11804;51.118;17.058;2023-04-25T01:30:40;10.50;99.90
23271;DHT22;11804;51.118;17.058;2023-04-25T01:33:09;10.60;99.90
23271;DHT22;11804;51.118;17.058;2023-04-25T01:35:37;10.50;99.90
23271;DHT22;11804;51.118;17.058;2023-04-25T01:38:05;10.40;99.90
23271;DHT22;11804;51.118;17.058;2023-04-25T01:40:33;10.40;99.90
23271;DHT22;11804;51.118;17.058;2023-04-25T01:43:01;10.50;99.90
23271;DHT22;11804;51.118;17.058;2023-04-25T01:45:29;10.50;99.90
23271;DHT22;11804;51.118;17.058;2023-04-25T01:47:57;10.50;99.90
23271;DHT22;11804;51.118;17.058;2023-04-25T01:50:25;10.50;99.90
23271;DHT22;11804;51.118;17.058;2023-04-25T01:52:53;10.40;99.90
23271;DHT22;11804;51.118;17.058;2023-04-25T01:55:21;10.40;99.90
23271;DHT22;11804;51.118;17.058;2023-04-25T01:57:48;10.40;99.90
23271;DHT22;11804;51.118;17.058;2023-04-25T02:00:18;10.40;99.90
23271;DHT22;11804;51.118;17.058;2023-04-25T02:02:47;10.40;99.90
23271;DHT22;11804;51.118;17.058;2023-04-25T02:05:17;10.30;99.90
23271;DHT22;11804;51.118;17.058;2023-04-25T02:07:44;10.40;99.90
23271;DHT22;11804;51.118;17.058;2023-04-25T02:10:12;10.30;99.90
23271;DHT22;11804;51.118;17.058;2023-04-25T02:12:40;10.30;99.90
23271;DHT22;11804;51.118;17.058;2023-04-25T02:15:08;10.20;99.90
23271;DHT22;11804;51.118;17.058;2023-04-25T02:17:35;10.20;99.90
23271;DHT22;11804;51.118;17.058;2023-04-25T02:20:05;10.20;99.90
23271;DHT22;11804;51.118;17.058;2023-04-25T02:22:33;10.20;99.90
23271;DHT22;11804;51.118;17.058;2023-04-25T02:25:02;10.20;99.90
23271;DHT22;11804;51.118;17.058;2023-04-25T02:27:31;10.20;99.90
23271;DHT22;11804;51.118;17.058;2023-04-25T02:29:59;10.20;99.90
23271;DHT22;11804;51.118;17.058;2023-04-25T02:32:26;10.20;99.90
23271;DHT22;11804;51.118;17.058;2023-04-25T02:34:54;10.20;99.90
23271;DHT22;11804;51.118;17.058;2023-04-25T02:37:22;10.20;99.90
23271;DHT22;11804;51.118;17.058;2023-04-25T02:39:49;10.10;99.90
23271;DHT22;11804;51.118;17.058;2023-04-25T02:42:17;10.10;99.90
23271;DHT22;11804;51.118;17.058;2023-04-25T02:44:44;10.10;99.90
23271;DHT22;11804;51.118;17.058;2023-04-25T02:47:12;10.10;99.90
23271;DHT22;11804;51.118;17.058;2023-04-25T02:49:40;10.10;99.90
23271;DHT22;11804;51.118;17.058;2023-04-25T02:52:07;10.10;99.90
23271;DHT22;11804;51.118;17.058;2023-04-25T02:54:35;10.00;99.90
23271;DHT22;11804;51.118;17.058;2023-04-25T02:57:03;10.00;99.90
23271;DHT22;11804;51.118;17.058;2023-04-25T02:59:30;9.90;99.90
23271;DHT22;11804;51.118;17.058;2023-04-25T03:01:58;9.90;99.90
23271;DHT22;11804;51.118;17.058;2023-04-25T03:04:26;9.90;99.90
23271;DHT22;11804;51.118;17.058;2023-04-25T03:06:53;9.90;99.90
23271;DHT22;11804;51.118;17.058;2023-04-25T03:09:21;9.90;99.90
23271;DHT22;11804;51.118;17.058;2023-04-25T03:11:49;9.80;99.90
23271;DHT22;11804;51.118;17.058;2023-04-25T03:14:16;9.80;99.90
23271;DHT22;11804;51.118;17.058;2023-04-25T03:16:44;9.80;99.90
23271;DHT22;11804;51.118;17.058;2023-04-25T03:19:12;9.80;99.90
23271;DHT22;11804;51.118;17.058;2023-04-25T03:21:42;9.80;99.90
23271;DHT22;11804;51.118;17.058;2023-04-25T03:24:09;9.80;99.90
23271;DHT22;11804;51.118;17.058;2023-04-25T03:26:38;9.70;99.90
23271;DHT22;11804;51.118;17.058;2023-04-25T03:29:06;9.60;99.90
23271;DHT22;11804;51.118;17.058;2023-04-25T03:31:33;9.60;99.90
23271;DHT22;11804;51.118;17.058;2023-04-25T03:34:01;9.60;99.90
23271;DHT22;11804;51.118;17.058;2023-04-25T03:36:28;9.60;99.90
23271;DHT22;11804;51.118;17.058;2023-04-25T03:38:56;9.60;99.90
23271;DHT22;11804;51.118;17.058;2023-04-25T03:41:24;9.60;99.90
23271;DHT22;11804;51.118;17.058;2023-04-25T03:43:51;9.60;99.90
23271;DHT22;11804;51.118;17.058;2023-04-25T03:46:19;9.60;99.90
23271;DHT22;11804;51.118;17.058;2023-04-25T03:48:47;9.60;99.90
23271;DHT22;11804;51.118;17.058;2023-04-25T03:51:15;9.50;99.90
23271;DHT22;11804;51.118;17.058;2023-04-25T03:53:42;9.50;99.90
23271;DHT22;11804;51.118;17.058;2023-04-25T03:56:10;9.50;99.90
23271;DHT22;11804;51.118;17.058;2023-04-25T03:58:37;9.50;99.90
23271;DHT22;11804;51.118;17.058;2023-04-25T04:01:05;9.60;99.90
23271;DHT22;11804;51.118;17.058;2023-04-25T04:03:34;9.60;99.90
23271;DHT22;11804;51.118;17.058;2023-04-25T04:06:06;9.60;99.90
23271;DHT22;11804;51.118;17.058;2023-04-25T04:08:34;9.70;99.90
23271;DHT22;11804;51.118;17.058;2023-04-25T04:11:02;9.70;99.90
23271;DHT22;11804;51.118;17.058;2023-04-25T04:13:30;9.70;99.90
23271;DHT22;11804;51.118;17.058;2023-04-25T04:15:57;9.80;99.90
23271;DHT22;11804;51.118;17.058;2023-04-25T04:18:25;9.80;99.90
23271;DHT22;11804;51.118;17.058;2023-04-25T04:20:53;9.90;99.90
23271;DHT22;11804;51.118;17.058;2023-04-25T04:23:20;9.80;99.90
23271;DHT22;11804;51.118;17.058;2023-04-25T04:25:49;9.80;99.90
23271;DHT22;11804;51.118;17.058;2023-04-25T04:28:17;9.80;99.90
23271;DHT22;11804;51.118;17.058;2023-04-25T04:30:44;10.00;99.90
23271;DHT22;11804;51.118;17.058;2023-04-25T04:33:14;10.00;99.90
23271;DHT22;11804;51.118;17.058;2023-04-25T04:35:42;10.00;99.90
23271;DHT22;11804;51.118;17.058;2023-04-25T04:38:10;9.90;99.90
23271;DHT22;11804;51.118;17.058;2023-04-25T04:40:38;10.00;99.90
23271;DHT22;11804;51.118;17.058;2023-04-25T04:43:06;9.90;99.90
23271;DHT22;11804;51.118;17.058;2023-04-25T04:45:35;10.00;99.90
23271;DHT22;11804;51.118;17.058;2023-04-25T04:48:06;10.00;99.90
23271;DHT22;11804;51.118;17.058;2023-04-25T04:50:33;9.90;99.90
23271;DHT22;11804;51.118;17.058;2023-04-25T04:53:03;9.90;99.90
23271;DHT22;11804;51.118;17.058;2023-04-25T04:55:31;10.10;99.90
23271;DHT22;11804;51.118;17.058;2023-04-25T04:57:59;10.10;99.90
23271;DHT22;11804;51.118;17.058;2023-04-25T05:00:27;10.20;99.90
23271;DHT22;11804;51.118;17.058;2023-04-25T05:02:56;10.30;99.90
23271;DHT22;11804;51.118;17.058;2023-04-25T05:05:24;10.40;99.90
23271;DHT22;11804;51.118;17.058;2023-04-25T05:07:52;10.60;99.90
23271;DHT22;11804;51.118;17.058;2023-04-25T05:10:20;10.90;99.90
23271;DHT22;11804;51.118;17.058;2023-04-25T05:12:47;11.10;99.90
23271;DHT22;11804;51.118;17.058;2023-04-25T05:15:15;11.40;99.90
23271;DHT22;11804;51.118;17.058;2023-04-25T05:17:43;11.40;98.30
23271;DHT22;11804;51.118;17.058;2023-04-25T05:20:12;11.50;98.90
23271;DHT22;11804;51.118;17.058;2023-04-25T05:22:40;11.60;97.40
23271;DHT22;11804;51.118;17.058;2023-04-25T05:25:09;11.60;95.40
23271;DHT22;11804;51.118;17.058;2023-04-25T05:27:36;11.70;93.60
23271;DHT22;11804;51.118;17.058;2023-04-25T05:30:05;11.80;93.70
23271;DHT22;11804;51.118;17.058;2023-04-25T05:32:33;11.70;93.00
23271;DHT22;11804;51.118;17.058;2023-04-25T05:35:01;11.70;93.60
23271;DHT22;11804;51.118;17.058;2023-04-25T05:37:29;11.70;94.10
23271;DHT22;11804;51.118;17.058;2023-04-25T05:39:57;11.50;94.50
23271;DHT22;11804;51.118;17.058;2023-04-25T05:42:25;11.50;94.60
23271;DHT22;11804;51.118;17.058;2023-04-25T05:44:52;11.40;94.20
23271;DHT22;11804;51.118;17.058;2023-04-25T05:47:20;11.40;94.00
23271;DHT22;11804;51.118;17.058;2023-04-25T05:49:49;11.40;94.10
23271;DHT22;11804;51.118;17.058;2023-04-25T05:52:17;11.40;93.90
23271;DHT22;11804;51.118;17.058;2023-04-25T05:54:44;11.30;94.70
23271;DHT22;11804;51.118;17.058;2023-04-25T05:57:26;11.30;94.10
23271;DHT22;11804;51.118;17.058;2023-04-25T05:59:54;11.30;94.80
23271;DHT22;11804;51.118;17.058;2023-04-25T06:02:22;11.50;94.20
23271;DHT22;11804;51.118;17.058;2023-04-25T06:04:50;11.80;93.10
23271;DHT22;11804;51.118;17.058;2023-04-25T06:07:19;11.90;91.50
23271;DHT22;11804;51.118;17.058;2023-04-25T06:09:48;12.00;90.80
23271;DHT22;11804;51.118;17.058;2023-04-25T06:12:23;12.20;89.10
23271;DHT22;11804;51.118;17.058;2023-04-25T06:14:51;12.40;88.80
23271;DHT22;11804;51.118;17.058;2023-04-25T06:17:18;12.40;88.50
23271;DHT22;11804;51.118;17.058;2023-04-25T06:19:46;12.50;86.70
23271;DHT22;11804;51.118;17.058;2023-04-25T06:22:13;12.70;85.70
23271;DHT22;11804;51.118;17.058;2023-04-25T06:24:43;12.90;83.20
23271;DHT22;11804;51.118;17.058;2023-04-25T06:27:12;13.00;82.00
23271;DHT22;11804;51.118;17.058;2023-04-25T06:29:40;13.30;81.10
23271;DHT22;11804;51.118;17.058;2023-04-25T06:32:07;13.60;80.40
23271;DHT22;11804;51.118;17.058;2023-04-25T06:34:35;13.90;77.80
23271;DHT22;11804;51.118;17.058;2023-04-25T06:37:02;14.20;73.90
23271;DHT22;11804;51.118;17.058;2023-04-25T06:39:31;14.70;70.80
23271;DHT22;11804;51.118;17.058;2023-04-25T06:41:59;15.40;68.50
23271;DHT22;11804;51.118;17.058;2023-04-25T06:44:26;15.70;66.00
23271;DHT22;11804;51.118;17.058;2023-04-25T06:46:56;16.00;64.10
23271;DHT22;11804;51.118;17.058;2023-04-25T06:49:23;15.90;63.10
23271;DHT22;11804;51.118;17.058;2023-04-25T06:51:51;15.60;63.00
23271;DHT22;11804;51.118;17.058;2023-04-25T06:54:20;15.60;62.70
23271;DHT22;11804;51.118;17.058;2023-04-25T06:56:47;15.60;62.60
23271;DHT22;11804;51.118;17.058;2023-04-25T06:59:15;15.60;61.20
23271;DHT22;11804;51.118;17.058;2023-04-25T07:01:42;15.30;62.70
23271;DHT22;11804;51.118;17.058;2023-04-25T07:04:10;15.40;62.70
23271;DHT22;11804;51.118;17.058;2023-04-25T07:06:38;15.50;61.70
23271;DHT22;11804;51.118;17.058;2023-04-25T07:09:07;15.70;61.50
23271;DHT22;11804;51.118;17.058;2023-04-25T07:11:35;15.80;59.50
23271;DHT22;11804;51.118;17.058;2023-04-25T07:14:03;15.80;59.70
23271;DHT22;11804;51.118;17.058;2023-04-25T07:16:32;15.80;59.10
23271;DHT22;11804;51.118;17.058;2023-04-25T07:18:59;16.00;58.80
23271;DHT22;11804;51.118;17.058;2023-04-25T07:21:26;16.00;58.20
23271;DHT22;11804;51.118;17.058;2023-04-25T07:23:54;15.80;57.70
23271;DHT22;11804;51.118;17.058;2023-04-25T07:26:22;15.80;57.60
23271;DHT22;11804;51.118;17.058;2023-04-25T07:28:49;16.20;57.00
23271;DHT22;11804;51.118;17.058;2023-04-25T07:31:18;16.30;57.60
23271;DHT22;11804;51.118;17.058;2023-04-25T07:33:45;16.10;57.00
23271;DHT22;11804;51.118;17.058;2023-04-25T07:36:13;16.00;57.30
23271;DHT22;11804;51.118;17.058;2023-04-25T07:38:42;16.20;56.20
23271;DHT22;11804;51.118;17.058;2023-04-25T07:41:11;16.50;55.60
23271;DHT22;11804;51.118;17.058;2023-04-25T07:43:38;16.30;54.90
23271;DHT22;11804;51.118;17.058;2023-04-25T07:46:06;15.90;56.60
23271;DHT22;11804;51.118;17.058;2023-04-25T07:48:34;15.40;57.50
23271;DHT22;11804;51.118;17.058;2023-04-25T07:51:01;15.30;58.30
23271;DHT22;11804;51.118;17.058;2023-04-25T07:53:30;15.10;58.10
23271;DHT22;11804;51.118;17.058;2023-04-25T07:55:59;15.20;58.60
23271;DHT22;11804;51.118;17.058;2023-04-25T07:58:27;15.40;58.70
23271;DHT22;11804;51.118;17.058;2023-04-25T08:00:55;15.80;58.20
23271;DHT22;11804;51.118;17.058;2023-04-25T08:03:22;16.50;56.90
23271;DHT22;11804;51.118;17.058;2023-04-25T08:05:50;16.90;55.30
23271;DHT22;11804;51.118;17.058;2023-04-25T08:08:17;16.80;55.40
23271;DHT22;11804;51.118;17.058;2023-04-25T08:10:45;16.30;56.60
23271;DHT22;11804;51.118;17.058;2023-04-25T08:13:14;16.20;57.40
23271;DHT22;11804;51.118;17.058;2023-04-25T08:15:42;15.80;58.50
23271;DHT22;11804;51.118;17.058;2023-04-25T08:18:09;15.30;59.70
23271;DHT22;11804;51.118;17.058;2023-04-25T08:20:37;14.80;61.80
23271;DHT22;11804;51.118;17.058;2023-04-25T08:23:05;14.50;62.80
23271;DHT22;11804;51.118;17.058;2023-04-25T08:25:32;14.30;64.20
23271;DHT22;11804;51.118;17.058;2023-04-25T08:28:00;14.10;65.00
23271;DHT22;11804;51.118;17.058;2023-04-25T08:30:29;14.00;66.50
23271;DHT22;11804;51.118;17.058;2023-04-25T08:32:57;14.10;66.90
23271;DHT22;11804;51.118;17.058;2023-04-25T08:35:25;14.30;66.40
23271;DHT22;11804;51.118;17.058;2023-04-25T08:37:52;14.60;66.10
23271;DHT22;11804;51.118;17.058;2023-04-25T08:40:22;14.30;65.90
23271;DHT22;11804;51.118;17.058;2023-04-25T08:42:55;13.90;67.70
23271;DHT22;11804;51.118;17.058;2023-04-25T08:45:24;13.70;68.70
23271;DHT22;11804;51.118;17.058;2023-04-25T08:47:53;13.60;69.80
23271;DHT22;11804;51.118;17.058;2023-04-25T08:50:23;13.60;70.10
23271;DHT22;11804;51.118;17.058;2023-04-25T08:52:54;13.60;68.90
23271;DHT22;11804;51.118;17.058;2023-04-25T08:55:22;13.80;68.30
23271;DHT22;11804;51.118;17.058;2023-04-25T08:57:52;13.80;68.30
23271;DHT22;11804;51.118;17.058;2023-04-25T09:00:22;13.90;68.60
23271;DHT22;11804;51.118;17.058;2023-04-25T09:02:50;13.90;68.80
23271;DHT22;11804;51.118;17.058;2023-04-25T09:05:19;14.10;68.80
23271;DHT22;11804;51.118;17.058;2023-04-25T09:07:46;14.70;67.30
23271;DHT22;11804;51.118;17.058;2023-04-25T09:10:14;15.80;64.10
23271;DHT22;11804;51.118;17.058;2023-04-25T09:12:41;16.40;60.50
23271;DHT22;11804;51.118;17.058;2023-04-25T09:15:11;16.50;58.80
23271;DHT22;11804;51.118;17.058;2023-04-25T09:17:41;16.10;58.30
23271;DHT22;11804;51.118;17.058;2023-04-25T09:20:13;16.60;58.10
23271;DHT22;11804;51.118;17.058;2023-04-25T09:22:41;16.90;56.80
23271;DHT22;11804;51.118;17.058;2023-04-25T09:25:10;16.80;56.50
23271;DHT22;11804;51.118;17.058;2023-04-25T09:27:52;16.80;56.50
23271;DHT22;11804;51.118;17.058;2023-04-25T09:30:29;16.80;55.40
23271;DHT22;11804;51.118;17.058;2023-04-25T09:33:10;16.90;55.80
23271;DHT22;11804;51.118;17.058;2023-04-25T09:35:39;16.70;55.30
23271;DHT22;11804;51.118;17.058;2023-04-25T09:38:14;15.80;55.90
23271;DHT22;11804;51.118;17.058;2023-04-25T09:40:46;15.40;57.90
23271;DHT22;11804;51.118;17.058;2023-04-25T09:43:24;15.00;60.30
23271;DHT22;11804;51.118;17.058;2023-04-25T09:45:54;14.70;62.60
23271;DHT22;11804;51.118;17.058;2023-04-25T09:48:25;14.40;65.10
23271;DHT22;11804;51.118;17.058;2023-04-25T09:51:14;14.30;66.50
23271;DHT22;11804;51.118;17.058;2023-04-25T09:53:45;14.40;66.60
23271;DHT22;11804;51.118;17.058;2023-04-25T09:56:13;14.40;66.10
23271;DHT22;11804;51.118;17.058;2023-04-25T09:58:41;14.50;66.10
23271;DHT22;11804;51.118;17.058;2023-04-25T10:01:10;14.60;66.10
23271;DHT22;11804;51.118;17.058;2023-04-25T10:03:40;14.70;66.00
23271;DHT22;11804;51.118;17.058;2023-04-25T10:06:16;14.80;65.30
23271;DHT22;11804;51.118;17.058;2023-04-25T10:08:42;14.70;64.50
23271;DHT22;11804;51.118;17.058;2023-04-25T10:11:10;14.90;62.60
23271;DHT22;11804;51.118;17.058;2023-04-25T10:13:41;14.90;61.70
23271;DHT22;11804;51.118;17.058;2023-04-25T10:16:09;15.20;61.30
23271;DHT22;11804;51.118;17.058;2023-04-25T10:18:37;15.60;60.50
23271;DHT22;11804;51.118;17.058;2023-04-25T10:21:06;15.50;59.60
23271;DHT22;11804;51.118;17.058;2023-04-25T10:23:35;15.30;59.60
23271;DHT22;11804;51.118;17.058;2023-04-25T10:26:04;15.20;60.00
23271;DHT22;11804;51.118;17.058;2023-04-25T10:31:20;14.80;59.90
23271;DHT22;11804;51.118;17.058;2023-04-25T10:33:49;14.60;60.90
23271;DHT22;11804;51.118;17.058;2023-04-25T10:36:21;14.70;60.70
23271;DHT22;11804;51.118;17.058;2023-04-25T10:38:50;14.80;59.50
23271;DHT22;11804;51.118;17.058;2023-04-25T10:41:19;14.80;59.00
23271;DHT22;11804;51.118;17.058;2023-04-25T10:43:49;14.80;59.80
23271;DHT22;11804;51.118;17.058;2023-04-25T10:46:27;15.10;59.40
23271;DHT22;11804;51.118;17.058;2023-04-25T10:48:58;15.30;58.60
23271;DHT22;11804;51.118;17.058;2023-04-25T10:51:33;15.10;58.40
23271;DHT22;11804;51.118;17.058;2023-04-25T10:54:04;15.20;58.80
23271;DHT22;11804;51.118;17.058;2023-04-25T10:56:35;15.60;57.80
23271;DHT22;11804;51.118;17.058;2023-04-25T10:59:13;15.90;57.40
23271;DHT22;11804;51.118;17.058;2023-04-25T11:01:49;16.30;56.80
23271;DHT22;11804;51.118;17.058;2023-04-25T11:04:29;16.40;56.20
23271;DHT22;11804;51.118;17.058;2023-04-25T11:07:07;16.60;56.10
23271;DHT22;11804;51.118;17.058;2023-04-25T11:09:38;16.70;55.50
23271;DHT22;11804;51.118;17.058;2023-04-25T11:12:09;16.70;54.00
23271;DHT22;11804;51.118;17.058;2023-04-25T11:14:38;16.60;53.90
23271;DHT22;11804;51.118;17.058;2023-04-25T11:17:05;16.40;54.10
23271;DHT22;11804;51.118;17.058;2023-04-25T11:19:34;16.00;55.50
23271;DHT22;11804;51.118;17.058;2023-04-25T11:22:02;15.80;55.50
23271;DHT22;11804;51.118;17.058;2023-04-25T11:24:32;15.50;55.60
23271;DHT22;11804;51.118;17.058;2023-04-25T11:27:02;15.50;55.70
23271;DHT22;11804;51.118;17.058;2023-04-25T11:29:31;15.50;55.50
23271;DHT22;11804;51.118;17.058;2023-04-25T11:31:59;15.40;57.10
23271;DHT22;11804;51.118;17.058;2023-04-25T11:34:30;15.60;55.90
23271;DHT22;11804;51.118;17.058;2023-04-25T11:36:58;15.60;53.30
23271;DHT22;11804;51.118;17.058;2023-04-25T11:39:27;15.40;52.70
23271;DHT22;11804;51.118;17.058;2023-04-25T11:41:55;15.10;53.00
23271;DHT22;11804;51.118;17.058;2023-04-25T11:46:58;15.10;53.20
23271;DHT22;11804;51.118;17.058;2023-04-25T11:49:30;15.10;53.00
23271;DHT22;11804;51.118;17.058;2023-04-25T11:51:56;15.40;52.80
23271;DHT22;11804;51.118;17.058;2023-04-25T11:54:24;15.50;52.40
23271;DHT22;11804;51.118;17.058;2023-04-25T11:56:52;15.60;52.30
23271;DHT22;11804;51.118;17.058;2023-04-25T11:59:24;15.70;52.70
23271;DHT22;11804;51.118;17.058;2023-04-25T12:01:53;15.80;52.10
23271;DHT22;11804;51.118;17.058;2023-04-25T12:04:22;15.80;51.90
23271;DHT22;11804;51.118;17.058;2023-04-25T12:06:52;15.90;52.30
23271;DHT22;11804;51.118;17.058;2023-04-25T12:09:30;15.90;52.40
23271;DHT22;11804;51.118;17.058;2023-04-25T12:12:00;15.90;51.90
23271;DHT22;11804;51.118;17.058;2023-04-25T12:14:33;15.90;51.30
23271;DHT22;11804;51.118;17.058;2023-04-25T12:17:03;15.80;52.10
23271;DHT22;11804;51.118;17.058;2023-04-25T12:19:34;15.60;52.30
23271;DHT22;11804;51.118;17.058;2023-04-25T12:22:03;15.40;52.30
23271;DHT22;11804;51.118;17.058;2023-04-25T12:24:33;15.30;52.80
23271;DHT22;11804;51.118;17.058;2023-04-25T12:27:03;15.40;52.60
23271;DHT22;11804;51.118;17.058;2023-04-25T12:29:33;15.50;52.60
23271;DHT22;11804;51.118;17.058;2023-04-25T12:32:01;15.60;52.60
23271;DHT22;11804;51.118;17.058;2023-04-25T12:34:29;15.70;52.70
23271;DHT22;11804;51.118;17.058;2023-04-25T12:36:58;15.60;52.00
23271;DHT22;11804;51.118;17.058;2023-04-25T12:39:26;15.80;51.60
23271;DHT22;11804;51.118;17.058;2023-04-25T12:41:53;15.70;52.20
23271;DHT22;11804;51.118;17.058;2023-04-25T12:44:22;15.70;52.50
23271;DHT22;11804;51.118;17.058;2023-04-25T12:46:49;15.70;52.40
23271;DHT22;11804;51.118;17.058;2023-04-25T12:49:17;15.70;52.90
23271;DHT22;11804;51.118;17.058;2023-04-25T12:51:44;15.60;52.50
23271;DHT22;11804;51.118;17.058;2023-04-25T12:54:13;15.50;53.10
23271;DHT22;11804;51.118;17.058;2023-04-25T12:56:41;15.40;53.10
23271;DHT22;11804;51.118;17.058;2023-04-25T12:59:09;15.40;53.60
23271;DHT22;11804;51.118;17.058;2023-04-25T13:01:36;15.30;53.90
23271;DHT22;11804;51.118;17.058;2023-04-25T13:04:04;15.30;54.30
23271;DHT22;11804;51.118;17.058;2023-04-25T13:06:32;15.30;54.40
23271;DHT22;11804;51.118;17.058;2023-04-25T13:09:00;15.20;54.70
23271;DHT22;11804;51.118;17.058;2023-04-25T13:11:28;15.20;54.50
23271;DHT22;11804;51.118;17.058;2023-04-25T13:13:56;15.30;54.10
23271;DHT22;11804;51.118;17.058;2023-04-25T13:16:24;15.20;54.50
23271;DHT22;11804;51.118;17.058;2023-04-25T13:18:51;15.20;53.30
23271;DHT22;11804;51.118;17.058;2023-04-25T13:21:19;15.20;53.00
23271;DHT22;11804;51.118;17.058;2023-04-25T13:23:47;15.10;52.50
23271;DHT22;11804;51.118;17.058;2023-04-25T13:26:14;15.20;52.30
23271;DHT22;11804;51.118;17.058;2023-04-25T13:28:42;15.40;52.80
23271;DHT22;11804;51.118;17.058;2023-04-25T13:31:10;15.50;52.50
23271;DHT22;11804;51.118;17.058;2023-04-25T13:33:37;15.50;52.10
23271;DHT22;11804;51.118;17.058;2023-04-25T13:36:05;15.50;52.90
23271;DHT22;11804;51.118;17.058;2023-04-25T13:38:33;15.50;52.60
23271;DHT22;11804;51.118;17.058;2023-04-25T13:41:00;15.40;52.90
23271;DHT22;11804;51.118;17.058;2023-04-25T13:43:28;15.30;52.80
23271;DHT22;11804;51.118;17.058;2023-04-25T13:45:55;15.20;53.20
23271;DHT22;11804;51.118;17.058;2023-04-25T13:48:24;15.20;54.10
23271;DHT22;11804;51.118;17.058;2023-04-25T13:50:52;15.00;54.00
23271;DHT22;11804;51.118;17.058;2023-04-25T13:53:19;14.90;54.20
23271;DHT22;11804;51.118;17.058;2023-04-25T13:55:47;14.90;54.10
23271;DHT22;11804;51.118;17.058;2023-04-25T13:58:15;15.00;54.50
23271;DHT22;11804;51.118;17.058;2023-04-25T14:00:42;14.90;54.50
23271;DHT22;11804;51.118;17.058;2023-04-25T14:03:12;15.00;54.70
23271;DHT22;11804;51.118;17.058;2023-04-25T14:05:39;15.10;54.50
23271;DHT22;11804;51.118;17.058;2023-04-25T14:08:08;15.20;54.30
23271;DHT22;11804;51.118;17.058;2023-04-25T14:10:37;15.30;53.90
23271;DHT22;11804;51.118;17.058;2023-04-25T14:13:05;15.60;53.70
23271;DHT22;11804;51.118;17.058;2023-04-25T14:15:33;15.70;53.70
23271;DHT22;11804;51.118;17.058;2023-04-25T14:18:02;15.70;53.70
23271;DHT22;11804;51.118;17.058;2023-04-25T14:20:30;15.60;52.90
23271;DHT22;11804;51.118;17.058;2023-04-25T14:22:58;15.30;53.10
23271;DHT22;11804;51.118;17.058;2023-04-25T14:25:26;15.20;52.90
23271;DHT22;11804;51.118;17.058;2023-04-25T14:27:53;15.10;52.90
23271;DHT22;11804;51.118;17.058;2023-04-25T14:30:21;15.10;53.30
23271;DHT22;11804;51.118;17.058;2023-04-25T14:32:50;15.10;53.70
23271;DHT22;11804;51.118;17.058;2023-04-25T14:35:17;15.20;54.30
23271;DHT22;11804;51.118;17.058;2023-04-25T14:37:45;15.10;53.60
23271;DHT22;11804;51.118;17.058;2023-04-25T14:40:13;14.90;53.20
23271;DHT22;11804;51.118;17.058;2023-04-25T14:42:42;14.90;53.40
23271;DHT22;11804;51.118;17.058;2023-04-25T14:45:12;14.70;53.90
23271;DHT22;11804;51.118;17.058;2023-04-25T14:47:42;14.60;54.60
23271;DHT22;11804;51.118;17.058;2023-04-25T14:50:10;14.60;55.10
23271;DHT22;11804;51.118;17.058;2023-04-25T14:52:38;14.50;54.60
23271;DHT22;11804;51.118;17.058;2023-04-25T14:55:06;14.40;55.80
23271;DHT22;11804;51.118;17.058;2023-04-25T14:57:34;14.30;56.70
23271;DHT22;11804;51.118;17.058;2023-04-25T15:00:03;14.10;57.20
23271;DHT22;11804;51.118;17.058;2023-04-25T15:02:33;13.90;57.80
23271;DHT22;11804;51.118;17.058;2023-04-25T15:05:01;13.90;58.20
23271;DHT22;11804;51.118;17.058;2023-04-25T15:07:29;13.80;58.70
23271;DHT22;11804;51.118;17.058;2023-04-25T15:09:57;13.60;59.40
23271;DHT22;11804;51.118;17.058;2023-04-25T15:12:25;13.50;59.70
23271;DHT22;11804;51.118;17.058;2023-04-25T15:14:54;13.50;59.80
23271;DHT22;11804;51.118;17.058;2023-04-25T15:17:22;13.40;60.20
23271;DHT22;11804;51.118;17.058;2023-04-25T15:19:50;13.30;60.70
23271;DHT22;11804;51.118;17.058;2023-04-25T15:22:18;13.30;60.70
23271;DHT22;11804;51.118;17.058;2023-04-25T15:24:45;13.30;60.20
23271;DHT22;11804;51.118;17.058;2023-04-25T15:27:13;13.30;60.60
23271;DHT22;11804;51.118;17.058;2023-04-25T15:29:40;13.20;59.70
23271;DHT22;11804;51.118;17.058;2023-04-25T15:32:08;13.30;59.80